createdAt,value
2023-01-17T00:02:24.248Z,98403.13
2023-01-17T00:05:10.355Z,98396.66
2023-01-17T00:07:56.404Z,98406.19
2023-01-17T00:10:26.487Z,98395.25
2023-01-17T00:13:03.112Z,98396.00
2023-01-17T00:15:40.066Z,98396.38
2023-01-17T00:18:07.561Z,98394.25
2023-01-17T00:20:56.567Z,98385.63
2023-01-17T00:23:47.835Z,98396.00
2023-01-17T00:26:19.691Z,98385.38
2023-01-17T00:28:49.120Z,98388.75
2023-01-17T00:31:17.073Z,98393.91
2023-01-17T00:33:44.409Z,98392.75
2023-01-17T00:36:12.118Z,98384.44
2023-01-17T00:38:40.192Z,98385.50
2023-01-17T00:41:12.770Z,98385.53
2023-01-17T00:43:59.668Z,98368.66
2023-01-17T00:46:50.034Z,98382.53
2023-01-17T00:49:35.844Z,98381.06
2023-01-17T00:52:22.004Z,98379.91
2023-01-17T00:55:08.092Z,98380.91
2023-01-17T00:57:54.288Z,98381.28
2023-01-17T01:00:41.870Z,98379.91
2023-01-17T01:03:31.646Z,98373.09
2023-01-17T01:06:17.943Z,98382.13
2023-01-17T01:09:06.954Z,98379.13
2023-01-17T01:11:54.670Z,98370.03
2023-01-17T01:14:40.875Z,98364.34
2023-01-17T01:17:27.064Z,98363.28
2023-01-17T01:20:13.226Z,98365.53
2023-01-17T01:22:59.422Z,98362.50
2023-01-17T01:25:48.698Z,98366.53
2023-01-17T01:28:34.760Z,98357.34
2023-01-17T01:31:22.129Z,98352.16
2023-01-17T01:33:53.443Z,98345.03
2023-01-17T01:36:21.697Z,98339.97
2023-01-17T01:38:50.383Z,98340.09
2023-01-17T01:41:18.130Z,98342.91
2023-01-17T01:43:54.004Z,98345.78
2023-01-17T01:46:32.839Z,98341.25
2023-01-17T01:49:28.378Z,98334.50
2023-01-17T01:52:01.810Z,98339.00
2023-01-17T01:54:41.101Z,98334.53
2023-01-17T01:57:16.051Z,98324.63
2023-01-17T01:59:49.589Z,98325.09
2023-01-17T02:02:17.322Z,98322.50
2023-01-17T02:04:45.448Z,98314.34
2023-01-17T02:07:16.714Z,98312.31
2023-01-17T02:09:45.000Z,98304.47
2023-01-17T02:12:13.265Z,98300.28
2023-01-17T02:14:40.829Z,98292.50
2023-01-17T02:17:33.196Z,98296.97
2023-01-17T02:20:34.232Z,98295.59
2023-01-17T02:23:20.559Z,98290.72
2023-01-17T02:25:47.976Z,98282.63
2023-01-17T02:28:40.167Z,98287.75
2023-01-17T02:31:37.820Z,98273.38
2023-01-17T02:34:24.635Z,98282.59
2023-01-17T02:36:58.591Z,98270.66
2023-01-17T02:39:32.018Z,98260.88
2023-01-17T02:42:06.714Z,98253.94
2023-01-17T02:44:41.088Z,98250.41
2023-01-17T02:47:25.257Z,98240.81
2023-01-17T02:49:56.748Z,98241.63
2023-01-17T02:52:43.891Z,98234.09
2023-01-17T02:55:23.932Z,98229.03
2023-01-17T02:58:16.073Z,98212.75
2023-01-17T03:01:02.435Z,98223.31
2023-01-17T03:03:34.303Z,98219.69
2023-01-17T03:06:12.051Z,98201.69
2023-01-17T03:08:45.000Z,98198.97
2023-01-17T03:11:13.500Z,98200.34
2023-01-17T03:13:42.290Z,98203.84
2023-01-17T03:16:23.857Z,98195.97
2023-01-17T03:18:51.780Z,98184.19
2023-01-17T03:21:19.212Z,98179.34
2023-01-17T03:23:46.768Z,98179.13
2023-01-17T03:26:14.379Z,98178.47
2023-01-17T03:28:41.951Z,98175.50
2023-01-17T03:31:09.910Z,98174.91
2023-01-17T03:33:37.292Z,98176.69
2023-01-17T03:36:05.490Z,98169.31
2023-01-17T03:38:33.042Z,98176.94
2023-01-17T03:41:00.576Z,98165.38
2023-01-17T03:43:28.090Z,98159.91
2023-01-17T03:46:05.560Z,98161.81
2023-01-17T03:48:33.273Z,98160.59
2023-01-17T03:51:00.657Z,98157.06
2023-01-17T03:53:28.160Z,98154.34
2023-01-17T03:55:55.581Z,98156.22
2023-01-17T03:58:22.924Z,98154.09
2023-01-17T04:00:50.550Z,98145.53
2023-01-17T04:03:18.972Z,98142.25
2023-01-17T04:05:46.712Z,98144.34
2023-01-17T04:08:14.151Z,98137.81
2023-01-17T04:10:41.692Z,98137.50
2023-01-17T04:13:09.127Z,98136.09
2023-01-17T04:15:36.580Z,98133.72
2023-01-17T04:18:04.865Z,98140.25
2023-01-17T04:20:35.407Z,98137.94
2023-01-17T04:23:03.414Z,98135.88
2023-01-17T04:25:31.425Z,98133.53
2023-01-17T04:28:00.049Z,98129.41
2023-01-17T04:30:28.632Z,98129.66
2023-01-17T04:32:56.694Z,98136.56
2023-01-17T04:35:24.450Z,98130.00
2023-01-17T04:37:52.189Z,98133.09
2023-01-17T04:40:20.017Z,98123.22
2023-01-17T04:42:48.177Z,98115.72
2023-01-17T04:45:16.139Z,98120.38
2023-01-17T04:47:43.617Z,98118.91
2023-01-17T04:50:11.925Z,98123.56
2023-01-17T04:52:39.355Z,98108.28
2023-01-17T04:55:07.459Z,98106.88
2023-01-17T04:57:34.901Z,98105.00
2023-01-17T05:00:02.760Z,98100.84
2023-01-17T05:02:30.252Z,98104.34
2023-01-17T05:04:57.707Z,98098.16
2023-01-17T05:07:25.461Z,98087.00
2023-01-17T05:09:52.918Z,98091.03
2023-01-17T05:12:20.428Z,98084.53
2023-01-17T05:14:47.791Z,98083.28
2023-01-17T05:17:15.132Z,98074.53
2023-01-17T05:19:42.658Z,98069.50
2023-01-17T05:22:15.463Z,98065.13
2023-01-17T05:24:47.341Z,98070.66
2023-01-17T05:27:15.014Z,98068.28
2023-01-17T05:29:42.338Z,98059.25
2023-01-17T05:32:09.988Z,98058.75
2023-01-17T05:34:37.328Z,98057.91
2023-01-17T05:37:04.921Z,98046.88
2023-01-17T05:39:32.432Z,98047.41
2023-01-17T05:41:59.961Z,98041.59
2023-01-17T05:44:27.846Z,98045.25
2023-01-17T05:46:56.319Z,98048.44
2023-01-17T05:49:23.896Z,98040.75
2023-01-17T05:51:53.500Z,98036.41
2023-01-17T05:54:22.263Z,98043.25
2023-01-17T05:56:49.698Z,98043.03
2023-01-17T05:59:28.557Z,98045.16
2023-01-17T06:02:03.465Z,98040.75
2023-01-17T06:04:31.021Z,98038.03
2023-01-17T06:06:58.763Z,98034.16
2023-01-17T06:09:26.358Z,98033.16
2023-01-17T06:11:53.743Z,98031.88
2023-01-17T06:14:20.998Z,98026.91
2023-01-17T06:16:48.751Z,98027.13
2023-01-17T06:19:16.336Z,98036.53
2023-01-17T06:21:43.878Z,98032.69
2023-01-17T06:24:11.311Z,98029.41
2023-01-17T06:26:38.860Z,98016.91
2023-01-17T06:29:06.347Z,98025.97
2023-01-17T06:31:33.866Z,98026.31
2023-01-17T06:34:04.802Z,98028.47
2023-01-17T06:36:35.551Z,98026.78
2023-01-17T06:39:03.022Z,98037.91
2023-01-17T06:41:30.529Z,98040.16
2023-01-17T06:43:58.167Z,98033.00
2023-01-17T06:46:25.933Z,98038.69
2023-01-17T06:48:53.379Z,98028.34
2023-01-17T06:51:20.941Z,98023.72
2023-01-17T06:53:48.883Z,98025.19
2023-01-17T06:56:16.289Z,98022.13
2023-01-17T06:58:43.929Z,98024.69
2023-01-17T07:01:13.064Z,98032.91
2023-01-17T07:03:40.707Z,98029.03
2023-01-17T07:06:09.598Z,98024.50
2023-01-17T07:08:37.413Z,98023.59
2023-01-17T07:11:07.969Z,98030.91
2023-01-17T07:13:36.741Z,98023.38
2023-01-17T07:16:05.171Z,98024.84
2023-01-17T07:18:33.741Z,98031.44
2023-01-17T07:21:01.348Z,98029.75
2023-01-17T07:23:30.045Z,98036.00
2023-01-17T07:25:59.259Z,98040.75
2023-01-17T07:28:28.106Z,98033.28
2023-01-17T07:30:55.624Z,98031.34
2023-01-17T07:33:23.245Z,98020.72
2023-01-17T07:35:50.693Z,98007.88
2023-01-17T07:38:20.112Z,98014.19
2023-01-17T07:40:47.535Z,97999.41
2023-01-17T07:43:15.523Z,98015.09
2023-01-17T07:45:49.529Z,98012.97
2023-01-17T07:48:22.833Z,98017.88
2023-01-17T07:50:57.660Z,98022.69
2023-01-17T07:53:30.469Z,98017.16
2023-01-17T07:56:04.803Z,98026.00
2023-01-17T07:58:32.700Z,98018.69
2023-01-17T08:01:05.610Z,98032.66
2023-01-17T08:03:36.587Z,98030.69
2023-01-17T08:06:04.419Z,98027.91
2023-01-17T08:08:31.966Z,98026.13
2023-01-17T08:10:59.859Z,98026.59
2023-01-17T08:13:29.727Z,98023.63
2023-01-17T08:15:57.181Z,98031.19
2023-01-17T08:18:24.496Z,98029.16
2023-01-17T08:20:51.825Z,98037.75
2023-01-17T08:23:19.215Z,98035.88
2023-01-17T08:25:47.030Z,98032.31
2023-01-17T08:28:15.980Z,98038.63
2023-01-17T08:30:43.598Z,98038.00
2023-01-17T08:33:11.053Z,98037.56
2023-01-17T08:35:38.616Z,98038.31
2023-01-17T08:38:06.072Z,98032.44
2023-01-17T08:40:33.746Z,98027.69
2023-01-17T08:43:01.347Z,98027.56
2023-01-17T08:45:29.245Z,98030.97
2023-01-17T08:47:58.170Z,98029.41
2023-01-17T08:50:27.448Z,98030.28
2023-01-17T08:53:01.126Z,98031.41
2023-01-17T08:55:29.220Z,98028.06
2023-01-17T08:57:57.229Z,98032.00
2023-01-17T09:00:24.993Z,98028.59
2023-01-17T09:02:53.267Z,98026.69
2023-01-17T09:05:23.609Z,98022.94
2023-01-17T09:07:51.138Z,98027.22
2023-01-17T09:10:18.774Z,98023.72
2023-01-17T09:12:53.825Z,98023.63
2023-01-17T09:15:24.969Z,98024.88
2023-01-17T09:17:56.275Z,98024.28
2023-01-17T09:20:25.119Z,98029.16
2023-01-17T09:22:52.436Z,98027.22
2023-01-17T09:25:20.235Z,98034.97
2023-01-17T09:27:47.775Z,98035.31
2023-01-17T09:30:15.554Z,98033.97
2023-01-17T09:32:43.073Z,98040.31
2023-01-17T09:35:13.470Z,98032.44
2023-01-17T09:37:41.225Z,98035.50
2023-01-17T09:40:18.387Z,98033.56
2023-01-17T09:42:46.261Z,98033.63
2023-01-17T09:45:17.768Z,98031.22
2023-01-17T09:47:47.677Z,98036.13
2023-01-17T09:50:34.564Z,98037.72
2023-01-17T09:53:08.077Z,98031.13
2023-01-17T09:55:53.446Z,98041.22
2023-01-17T09:58:25.579Z,98045.53
2023-01-17T10:01:07.495Z,98042.19
2023-01-17T10:03:46.701Z,98049.88
2023-01-17T10:06:15.544Z,98053.69
2023-01-17T10:08:58.096Z,98058.31
2023-01-17T10:11:37.479Z,98059.69
2023-01-17T10:14:28.108Z,98061.03
2023-01-17T10:17:10.947Z,98059.84
2023-01-17T10:20:04.701Z,98060.44
2023-01-17T10:23:04.334Z,98068.38
2023-01-17T10:25:52.653Z,98058.00
2023-01-17T10:28:31.439Z,98059.72
2023-01-17T10:31:03.669Z,98056.59
2023-01-17T10:33:54.314Z,98069.50
2023-01-17T10:36:27.724Z,98058.97
2023-01-17T10:39:05.310Z,98056.22
2023-01-17T10:41:43.877Z,98044.75
2023-01-17T10:44:51.073Z,98057.13
2023-01-17T10:47:28.121Z,98068.38
2023-01-17T10:50:02.029Z,98059.63
2023-01-17T10:52:38.625Z,98062.47
2023-01-17T10:55:21.696Z,98052.34
2023-01-17T10:57:49.532Z,98047.56
2023-01-17T11:00:50.527Z,98053.94
2023-01-17T11:03:20.921Z,98052.13
2023-01-17T11:06:22.252Z,98044.88
2023-01-17T11:09:00.636Z,98038.84
2023-01-17T11:11:32.015Z,98035.41
2023-01-17T11:14:01.894Z,98036.84
2023-01-17T11:16:33.355Z,98019.75
2023-01-17T11:19:08.761Z,98031.38
2023-01-17T11:21:38.391Z,98034.84
2023-01-17T11:24:11.784Z,98022.63
2023-01-17T11:26:47.622Z,98023.88
2023-01-17T11:29:23.989Z,98022.59
2023-01-17T11:31:51.835Z,98019.91
2023-01-17T11:34:25.067Z,98014.31
2023-01-17T11:37:17.741Z,98015.16
2023-01-17T11:39:48.302Z,98014.13
2023-01-17T11:42:38.323Z,98014.50
2023-01-17T11:45:24.317Z,98014.03
2023-01-17T11:48:13.391Z,98018.34
2023-01-17T11:50:43.046Z,98011.25
2023-01-17T11:53:31.563Z,98007.44
2023-01-17T11:56:05.310Z,98015.97
2023-01-17T11:58:34.878Z,98014.34
2023-01-17T12:01:10.713Z,98011.84
2023-01-17T12:04:00.351Z,97995.00
2023-01-17T12:06:57.324Z,97999.44
2023-01-17T12:09:45.602Z,98004.41
2023-01-17T12:12:47.861Z,97993.09
2023-01-17T12:15:23.885Z,97998.22
2023-01-17T12:18:42.800Z,97988.56
2023-01-17T12:21:46.686Z,97987.00
2023-01-17T12:24:23.788Z,97995.84
2023-01-17T12:27:30.178Z,97987.44
2023-01-17T12:30:19.001Z,97983.22
2023-01-17T12:33:08.707Z,97989.66
2023-01-17T12:35:41.923Z,97982.19
2023-01-17T12:38:27.487Z,97975.81
2023-01-17T12:41:26.527Z,97975.03
2023-01-17T12:43:56.663Z,97984.94
2023-01-17T12:46:34.725Z,97980.19
2023-01-17T12:49:21.610Z,97974.84
2023-01-17T12:51:53.720Z,97978.91
2023-01-17T12:54:27.924Z,97976.53
2023-01-17T12:57:02.270Z,97982.66
2023-01-17T12:59:37.979Z,97985.00
2023-01-17T13:02:22.902Z,97980.41
2023-01-17T13:05:03.258Z,97981.84
2023-01-17T13:07:51.957Z,97985.19
2023-01-17T13:10:41.098Z,97970.44
2023-01-17T13:13:22.162Z,97979.41
2023-01-17T13:15:55.577Z,97979.75
2023-01-17T13:18:26.376Z,97984.75
2023-01-17T13:21:18.333Z,97982.94
2023-01-17T13:24:03.989Z,97974.66
2023-01-17T13:26:56.235Z,97985.78
2023-01-17T13:29:44.632Z,97984.44
2023-01-17T13:32:50.533Z,97989.88
2023-01-17T13:35:42.093Z,97994.06
2023-01-17T13:38:22.177Z,97997.38
2023-01-17T13:41:23.855Z,97992.03
2023-01-17T13:44:10.029Z,97997.38
2023-01-17T13:46:55.675Z,97993.16
2023-01-17T13:49:29.372Z,97998.13
2023-01-17T13:52:04.758Z,97998.28
2023-01-17T13:54:33.457Z,98001.41
2023-01-17T13:57:28.544Z,98000.09
2023-01-17T13:59:58.069Z,97998.72
2023-01-17T14:02:31.438Z,97999.53
2023-01-17T14:05:16.388Z,98013.13
2023-01-17T14:07:57.260Z,98001.31
2023-01-17T14:10:37.124Z,98010.88
2023-01-17T14:13:05.869Z,98002.28
2023-01-17T14:15:35.519Z,97999.38
2023-01-17T14:18:04.958Z,98014.31
2023-01-17T14:20:46.056Z,98017.66
2023-01-17T14:23:31.488Z,98013.03
2023-01-17T14:26:00.754Z,98022.13
2023-01-17T14:28:29.453Z,98025.44
2023-01-17T14:30:58.977Z,98030.66
2023-01-17T14:33:30.545Z,98041.06
2023-01-17T14:36:02.425Z,98033.31
2023-01-17T14:38:32.721Z,98040.28
2023-01-17T14:41:09.946Z,98043.66
2023-01-17T14:43:41.151Z,98040.72
2023-01-17T14:46:25.758Z,98045.03
2023-01-17T14:49:00.174Z,98054.16
2023-01-17T14:51:28.497Z,98054.34
2023-01-17T14:53:58.816Z,98052.84
2023-01-17T14:56:28.467Z,98055.88
2023-01-17T14:59:17.555Z,98064.75
2023-01-17T15:02:06.259Z,98058.94
2023-01-17T15:04:40.090Z,98062.38
2023-01-17T15:07:13.325Z,98066.94
2023-01-17T15:09:43.118Z,98070.28
2023-01-17T15:12:13.925Z,98072.03
2023-01-17T15:14:44.073Z,98078.94
2023-01-17T15:17:19.714Z,98080.44
2023-01-17T15:20:16.121Z,98086.00
2023-01-17T15:22:43.818Z,98082.19
2023-01-17T15:25:11.652Z,98083.72
2023-01-17T15:27:39.135Z,98098.56
2023-01-17T15:30:07.527Z,98093.59
2023-01-17T15:32:38.055Z,98092.63
2023-01-17T15:35:07.984Z,98103.09
2023-01-17T15:37:37.131Z,98095.09
2023-01-17T15:40:11.633Z,98098.00
2023-01-17T15:42:42.898Z,98103.94
2023-01-17T15:45:15.718Z,98101.38
2023-01-17T15:47:44.205Z,98108.91
2023-01-17T15:50:39.816Z,98102.09
2023-01-17T15:53:29.638Z,98112.16
2023-01-17T15:55:57.866Z,98100.34
2023-01-17T15:58:28.519Z,98106.06
2023-01-17T16:00:56.652Z,98107.59
2023-01-17T16:03:29.412Z,98115.84
2023-01-17T16:06:00.251Z,98115.72
2023-01-17T16:08:32.772Z,98119.50
2023-01-17T16:11:02.686Z,98120.50
2023-01-17T16:13:32.880Z,98130.00
2023-01-17T16:16:15.133Z,98122.19
2023-01-17T16:18:42.859Z,98133.00
2023-01-17T16:21:17.158Z,98137.28
2023-01-17T16:23:45.199Z,98135.66
2023-01-17T16:26:13.073Z,98141.31
2023-01-17T16:28:40.512Z,98143.78
2023-01-17T16:31:08.078Z,98142.53
2023-01-17T16:33:35.655Z,98145.88
2023-01-17T16:36:03.379Z,98159.13
2023-01-17T16:38:32.356Z,98161.06
2023-01-17T16:41:03.955Z,98164.19
2023-01-17T16:43:31.667Z,98164.94
2023-01-17T16:45:59.369Z,98169.72
2023-01-17T16:48:26.751Z,98171.97
2023-01-17T16:50:54.400Z,98173.63
2023-01-17T16:53:28.172Z,98178.31
2023-01-17T16:55:58.237Z,98176.56
2023-01-17T16:58:25.839Z,98177.00
2023-01-17T17:00:55.413Z,98190.84
2023-01-17T17:03:23.252Z,98171.69
2023-01-17T17:05:58.663Z,98195.69
2023-01-17T17:08:29.155Z,98185.13
2023-01-17T17:11:17.503Z,98194.81
2023-01-17T17:13:46.812Z,98194.81
2023-01-17T17:16:20.864Z,98208.97
2023-01-17T17:18:56.924Z,98210.41
2023-01-17T17:21:26.257Z,98212.78
2023-01-17T17:23:59.252Z,98217.22
2023-01-17T17:26:32.752Z,98221.19
2023-01-17T17:29:00.728Z,98222.19
2023-01-17T17:31:28.522Z,98221.00
2023-01-17T17:34:01.917Z,98226.97
2023-01-17T17:36:30.232Z,98235.59
2023-01-17T17:38:58.177Z,98232.53
2023-01-17T17:41:28.377Z,98241.25
2023-01-17T17:43:56.094Z,98230.66
2023-01-17T17:46:25.171Z,98242.78
2023-01-17T17:48:53.015Z,98248.09
2023-01-17T17:51:35.231Z,98238.19
2023-01-17T17:54:10.177Z,98247.50
2023-01-17T17:56:38.849Z,98258.47
2023-01-17T17:59:08.211Z,98256.81
2023-01-17T18:01:38.354Z,98257.53
2023-01-17T18:04:07.676Z,98268.88
2023-01-17T18:06:39.067Z,98280.34
2023-01-17T18:09:12.045Z,98285.38
2023-01-17T18:11:41.234Z,98285.47
2023-01-17T18:14:11.502Z,98283.81
2023-01-17T18:16:42.008Z,98296.84
2023-01-17T18:19:21.483Z,98298.94
2023-01-17T18:21:51.663Z,98314.00
2023-01-17T18:24:24.438Z,98306.47
2023-01-17T18:26:53.684Z,98309.59
2023-01-17T18:29:21.880Z,98310.38
2023-01-17T18:31:51.656Z,98316.16
2023-01-17T18:34:23.934Z,98319.09
2023-01-17T18:36:53.562Z,98325.56
2023-01-17T18:39:23.339Z,98325.81
2023-01-17T18:41:51.776Z,98327.72
2023-01-17T18:44:22.575Z,98335.03
2023-01-17T18:46:52.740Z,98331.28
2023-01-17T18:49:20.557Z,98335.09
2023-01-17T18:51:51.614Z,98338.31
2023-01-17T18:54:20.352Z,98334.03
2023-01-17T18:56:48.200Z,98346.22
2023-01-17T18:59:18.454Z,98348.31
2023-01-17T19:01:46.373Z,98351.66
2023-01-17T19:04:16.188Z,98360.41
2023-01-17T19:06:46.731Z,98361.00
2023-01-17T19:09:18.406Z,98360.09
2023-01-17T19:11:47.593Z,98360.25
2023-01-17T19:14:15.845Z,98365.28
2023-01-17T19:16:44.016Z,98365.72
2023-01-17T19:19:14.020Z,98368.97
2023-01-17T19:21:41.652Z,98379.09
2023-01-17T19:24:10.956Z,98392.78
2023-01-17T19:26:38.902Z,98381.84
2023-01-17T19:29:06.946Z,98387.97
2023-01-17T19:31:39.886Z,98391.97
2023-01-17T19:34:07.413Z,98398.03
2023-01-17T19:36:37.477Z,98395.50
2023-01-17T19:39:06.847Z,98396.88
2023-01-17T19:41:36.611Z,98407.34
2023-01-17T19:44:06.905Z,98409.91
2023-01-17T19:46:35.466Z,98418.41
2023-01-17T19:49:04.242Z,98415.88
2023-01-17T19:51:32.141Z,98418.75
2023-01-17T19:54:04.217Z,98426.44
2023-01-17T19:56:32.076Z,98439.50
2023-01-17T19:59:01.755Z,98440.75
2023-01-17T20:01:32.177Z,98449.91
2023-01-17T20:04:01.403Z,98453.19
2023-01-17T20:06:32.087Z,98455.88
2023-01-17T20:08:59.502Z,98463.84
2023-01-17T20:11:28.279Z,98469.78
2023-01-17T20:13:57.228Z,98467.09
2023-01-17T20:16:27.093Z,98477.50
2023-01-17T20:18:54.727Z,98477.28
2023-01-17T20:21:24.949Z,98481.31
2023-01-17T20:23:53.670Z,98473.63
2023-01-17T20:26:29.826Z,98472.81
2023-01-17T20:28:57.435Z,98477.66
2023-01-17T20:31:26.115Z,98484.03
2023-01-17T20:33:56.441Z,98486.25
2023-01-17T20:36:25.911Z,98479.69
2023-01-17T20:38:54.577Z,98482.03
2023-01-17T20:41:23.981Z,98485.47
2023-01-17T20:43:54.524Z,98482.09
2023-01-17T20:46:24.515Z,98488.84
2023-01-17T20:48:54.527Z,98493.81
2023-01-17T20:51:22.606Z,98496.69
2023-01-17T20:53:59.689Z,98492.69
2023-01-17T20:56:27.419Z,98490.47
2023-01-17T20:58:55.186Z,98499.28
2023-01-17T21:01:23.128Z,98499.56
2023-01-17T21:03:53.191Z,98508.06
2023-01-17T21:06:21.985Z,98497.97
2023-01-17T21:08:49.444Z,98506.91
2023-01-17T21:11:29.600Z,98511.09
2023-01-17T21:13:57.778Z,98512.69
2023-01-17T21:16:28.206Z,98515.91
2023-01-17T21:18:58.808Z,98518.00
2023-01-17T21:21:27.022Z,98523.44
2023-01-17T21:23:57.702Z,98523.75
2023-01-17T21:26:27.455Z,98530.63
2023-01-17T21:29:01.429Z,98528.50
2023-01-17T21:31:30.559Z,98538.31
2023-01-17T21:34:05.803Z,98538.47
2023-01-17T21:36:39.003Z,98557.53
2023-01-17T21:39:17.884Z,98554.19
2023-01-17T21:41:50.875Z,98553.22
2023-01-17T21:44:21.130Z,98553.69
2023-01-17T21:46:54.218Z,98564.41
2023-01-17T21:49:22.650Z,98570.78
2023-01-17T21:51:52.969Z,98572.16
2023-01-17T21:54:41.773Z,98572.84
2023-01-17T21:57:28.496Z,98581.19
2023-01-17T21:59:55.888Z,98580.53
2023-01-17T22:02:23.711Z,98575.56
2023-01-17T22:04:51.673Z,98583.72
2023-01-17T22:07:19.140Z,98587.91
2023-01-17T22:09:46.689Z,98582.25
2023-01-17T22:12:14.151Z,98591.38
2023-01-17T22:14:41.876Z,98587.06
2023-01-17T22:17:09.775Z,98582.91
2023-01-17T22:19:37.165Z,98594.78
2023-01-17T22:22:04.552Z,98602.47
2023-01-17T22:24:32.437Z,98597.94
2023-01-17T22:26:59.897Z,98604.28
2023-01-17T22:29:27.318Z,98614.47
2023-01-17T22:31:54.726Z,98631.66
2023-01-17T22:34:22.940Z,98624.06
2023-01-17T22:36:50.515Z,98639.72
2023-01-17T22:39:17.870Z,98639.34
2023-01-17T22:41:45.284Z,98634.50
2023-01-17T22:44:12.821Z,98642.72
2023-01-17T22:46:41.513Z,98650.75
2023-01-17T22:49:13.473Z,98641.84
2023-01-17T22:51:41.307Z,98656.66
2023-01-17T22:54:11.629Z,98657.72
2023-01-17T22:56:39.240Z,98660.44
2023-01-17T22:59:11.599Z,98662.22
2023-01-17T23:01:42.751Z,98674.72
2023-01-17T23:04:13.060Z,98675.22
2023-01-17T23:06:41.484Z,98677.41
2023-01-17T23:09:11.408Z,98680.69
2023-01-17T23:11:43.494Z,98692.53
2023-01-17T23:14:31.149Z,98687.63
2023-01-17T23:17:21.713Z,98698.19
2023-01-17T23:19:54.511Z,98692.53
2023-01-17T23:22:26.940Z,98703.16
2023-01-17T23:25:05.086Z,98700.78
2023-01-17T23:28:03.186Z,98701.69
2023-01-17T23:30:36.198Z,98702.75
2023-01-17T23:33:12.027Z,98702.97
2023-01-17T23:35:42.222Z,98703.22
2023-01-17T23:38:26.628Z,98709.28
2023-01-17T23:41:24.749Z,98704.97
2023-01-17T23:43:54.051Z,98703.31
2023-01-17T23:46:22.466Z,98707.97
2023-01-17T23:48:49.889Z,98712.16
2023-01-17T23:51:17.267Z,98708.09
2023-01-17T23:53:44.686Z,98725.56
2023-01-17T23:56:18.438Z,98728.34
2023-01-17T23:58:46.094Z,98732.00
